DLH2PM EDDF-LSZH
Flight info
| Callsign | DLH2PM |
|---|---|
| Flight time | 0h 34m |
| Altitude | 21000 |
| Route | ANEKI2L ANEKI Y163 NEKLO Y171 INKAM T725 LAMGO T721 RILAX |
| Aircraft | A20N/M-SDE2E3FGHIRWXY/LB1 |
Departure
| Time | 2026-05-05 17:28 |
|---|---|
| Airport | Frankfurt Main Airport (EDDF) |
Arrival
| Time | 2026-05-05 18:03 |
|---|---|
| Airport | Zürich Airport (LSZH) |
| Time | Latitude | Longitude | Altitude | Speed | Heading |
|---|---|---|---|---|---|
| 2026-05-05 17:03 | 50.04801 | 8.56914 | 370 ft | 0 kts | 295° |
| 2026-05-05 17:15 | 50.04798 | 8.56922 | 371 ft | 2 kts | 289° |
| 2026-05-05 17:15 | 50.04793 | 8.56944 | 371 ft | 2 kts | 298° |
| 2026-05-05 17:16 | 50.04786 | 8.56964 | 371 ft | 2 kts | 295° |
| 2026-05-05 17:16 | 50.04779 | 8.56986 | 371 ft | 2 kts | 296° |
| 2026-05-05 17:16 | 50.04773 | 8.57006 | 371 ft | 1 kts | 296° |
| 2026-05-05 17:16 | 50.04771 | 8.57013 | 371 ft | 0 kts | 289° |
| 2026-05-05 17:17 | 50.04769 | 8.57022 | 371 ft | 0 kts | 261° |
| 2026-05-05 17:17 | 50.04771 | 8.57030 | 371 ft | 0 kts | 232° |
| 2026-05-05 17:17 | 50.04776 | 8.57036 | 371 ft | 1 kts | 207° |
| 2026-05-05 17:17 | 50.04777 | 8.57037 | 371 ft | 0 kts | 206° |
| 2026-05-05 17:20 | 50.04775 | 8.57036 | 371 ft | 0 kts | 208° |
| 2026-05-05 17:20 | 50.04768 | 8.57026 | 371 ft | 2 kts | 220° |
| 2026-05-05 17:20 | 50.04744 | 8.56999 | 371 ft | 6 kts | 208° |
| 2026-05-05 17:20 | 50.04693 | 8.56962 | 371 ft | 10 kts | 205° |
| 2026-05-05 17:21 | 50.04619 | 8.56910 | 371 ft | 12 kts | 205° |
| 2026-05-05 17:21 | 50.04543 | 8.56855 | 371 ft | 10 kts | 201° |
| 2026-05-05 17:21 | 50.04478 | 8.56846 | 371 ft | 9 kts | 193° |
| 2026-05-05 17:22 | 50.04409 | 8.56651 | 371 ft | 12 kts | 250° |
| 2026-05-05 17:22 | 50.04376 | 8.56511 | 371 ft | 14 kts | 250° |
| 2026-05-05 17:22 | 50.04338 | 8.56351 | 371 ft | 17 kts | 250° |
| 2026-05-05 17:22 | 50.04294 | 8.56168 | 371 ft | 18 kts | 250° |
| 2026-05-05 17:23 | 50.04247 | 8.55972 | 371 ft | 19 kts | 250° |
| 2026-05-05 17:23 | 50.04200 | 8.55772 | 371 ft | 20 kts | 250° |
| 2026-05-05 17:23 | 50.04150 | 8.55566 | 371 ft | 20 kts | 250° |
| 2026-05-05 17:23 | 50.04100 | 8.55356 | 371 ft | 20 kts | 250° |
| 2026-05-05 17:24 | 50.04050 | 8.55144 | 371 ft | 21 kts | 250° |
| 2026-05-05 17:24 | 50.03998 | 8.54927 | 371 ft | 21 kts | 250° |
| 2026-05-05 17:24 | 50.03945 | 8.54710 | 371 ft | 21 kts | 250° |
| 2026-05-05 17:24 | 50.03894 | 8.54495 | 371 ft | 20 kts | 250° |
| 2026-05-05 17:25 | 50.03829 | 8.54300 | 371 ft | 20 kts | 233° |
| 2026-05-05 17:25 | 50.03789 | 8.54173 | 371 ft | 19 kts | 249° |
| 2026-05-05 17:25 | 50.03727 | 8.53913 | 371 ft | 19 kts | 250° |
| 2026-05-05 17:25 | 50.03681 | 8.53723 | 371 ft | 18 kts | 250° |
| 2026-05-05 17:26 | 50.03635 | 8.53538 | 371 ft | 18 kts | 249° |
| 2026-05-05 17:26 | 50.03590 | 8.53354 | 371 ft | 18 kts | 250° |
| 2026-05-05 17:26 | 50.03545 | 8.53163 | 371 ft | 19 kts | 250° |
| 2026-05-05 17:26 | 50.03495 | 8.52961 | 371 ft | 20 kts | 250° |
| 2026-05-05 17:27 | 50.03439 | 8.52750 | 371 ft | 21 kts | 246° |
| 2026-05-05 17:27 | 50.03373 | 8.52592 | 371 ft | 14 kts | 203° |
| 2026-05-05 17:27 | 50.03195 | 8.52592 | 371 ft | 58 kts | 180° |
| 2026-05-05 17:27 | 50.02514 | 8.52597 | 371 ft | 134 kts | 180° |
| 2026-05-05 17:28 | 50.01440 | 8.52609 | 780 ft | 159 kts | 181° |
| 2026-05-05 17:28 | 50.00374 | 8.52628 | 1596 ft | 156 kts | 180° |
| 2026-05-05 17:28 | 49.99318 | 8.52735 | 2370 ft | 156 kts | 176° |
| 2026-05-05 17:28 | 49.98255 | 8.52952 | 3039 ft | 160 kts | 178° |
| 2026-05-05 17:29 | 49.97091 | 8.53087 | 3547 ft | 175 kts | 180° |
| 2026-05-05 17:29 | 49.95796 | 8.53155 | 3838 ft | 205 kts | 181° |
| 2026-05-05 17:29 | 49.94281 | 8.53191 | 3800 ft | 225 kts | 181° |
| 2026-05-05 17:29 | 49.92698 | 8.53251 | 3835 ft | 228 kts | 180° |
| 2026-05-05 17:30 | 49.91125 | 8.53331 | 3849 ft | 228 kts | 180° |
| 2026-05-05 17:30 | 49.89530 | 8.53424 | 3856 ft | 228 kts | 180° |
| 2026-05-05 17:30 | 49.87959 | 8.53523 | 3858 ft | 228 kts | 180° |
| 2026-05-05 17:30 | 49.86369 | 8.53625 | 3859 ft | 228 kts | 180° |
| 2026-05-05 17:31 | 49.84782 | 8.53728 | 3938 ft | 234 kts | 180° |
| 2026-05-05 17:31 | 49.83158 | 8.53834 | 4670 ft | 239 kts | 180° |
| 2026-05-05 17:31 | 49.81544 | 8.53942 | 5835 ft | 233 kts | 180° |
| 2026-05-05 17:31 | 49.79946 | 8.54048 | 6834 ft | 234 kts | 180° |
| 2026-05-05 17:32 | 49.78354 | 8.54109 | 7743 ft | 236 kts | 183° |
| 2026-05-05 17:32 | 49.76716 | 8.53976 | 8546 ft | 243 kts | 187° |
| 2026-05-05 17:32 | 49.74984 | 8.53747 | 9110 ft | 260 kts | 187° |
| 2026-05-05 17:32 | 49.73139 | 8.53495 | 9765 ft | 274 kts | 186° |
| 2026-05-05 17:33 | 49.71228 | 8.53235 | 10467 ft | 284 kts | 186° |
| 2026-05-05 17:33 | 49.69203 | 8.52963 | 10945 ft | 302 kts | 186° |
| 2026-05-05 17:33 | 49.67048 | 8.52676 | 11375 ft | 320 kts | 186° |
| 2026-05-05 17:33 | 49.64765 | 8.52437 | 11762 ft | 339 kts | 182° |
| 2026-05-05 17:34 | 49.62363 | 8.52403 | 12105 ft | 357 kts | 180° |
| 2026-05-05 17:34 | 49.59819 | 8.52422 | 12475 ft | 372 kts | 180° |
| 2026-05-05 17:34 | 49.57244 | 8.52438 | 13134 ft | 378 kts | 180° |
| 2026-05-05 17:34 | 49.54608 | 8.52444 | 13901 ft | 381 kts | 180° |
| 2026-05-05 17:35 | 49.51969 | 8.52440 | 14615 ft | 384 kts | 180° |
| 2026-05-05 17:35 | 49.49278 | 8.52431 | 15292 ft | 388 kts | 180° |
| 2026-05-05 17:35 | 49.46585 | 8.52419 | 15964 ft | 391 kts | 180° |
| 2026-05-05 17:35 | 49.43888 | 8.52404 | 16606 ft | 394 kts | 180° |
| 2026-05-05 17:36 | 49.41152 | 8.52387 | 17253 ft | 397 kts | 180° |
| 2026-05-05 17:36 | 49.38393 | 8.52369 | 17860 ft | 401 kts | 180° |
| 2026-05-05 17:36 | 49.35583 | 8.52351 | 18460 ft | 404 kts | 180° |
| 2026-05-05 17:36 | 49.32778 | 8.52334 | 19030 ft | 407 kts | 180° |
| 2026-05-05 17:37 | 49.29975 | 8.52316 | 19592 ft | 410 kts | 180° |
| 2026-05-05 17:37 | 49.28053 | 8.52303 | 19966 ft | 412 kts | 180° |
| 2026-05-05 17:37 | 49.24266 | 8.52277 | 20631 ft | 416 kts | 180° |
| 2026-05-05 17:37 | 49.21363 | 8.52257 | 20817 ft | 417 kts | 180° |
| 2026-05-05 17:38 | 49.18467 | 8.52237 | 20819 ft | 417 kts | 180° |
| 2026-05-05 17:38 | 49.15576 | 8.52216 | 20821 ft | 417 kts | 180° |
| 2026-05-05 17:38 | 49.12709 | 8.52196 | 20822 ft | 417 kts | 180° |
| 2026-05-05 17:38 | 49.09803 | 8.52175 | 20822 ft | 417 kts | 180° |
| 2026-05-05 17:39 | 49.06913 | 8.52155 | 20822 ft | 417 kts | 180° |
| 2026-05-05 17:39 | 49.04017 | 8.52134 | 20823 ft | 417 kts | 180° |
| 2026-05-05 17:39 | 49.01122 | 8.52114 | 20822 ft | 417 kts | 180° |
| 2026-05-05 17:39 | 48.98233 | 8.52094 | 20822 ft | 417 kts | 180° |
| 2026-05-05 17:40 | 48.95338 | 8.52073 | 20822 ft | 417 kts | 180° |
| 2026-05-05 17:40 | 48.92439 | 8.52053 | 20823 ft | 416 kts | 180° |
| 2026-05-05 17:40 | 48.89588 | 8.52033 | 20823 ft | 416 kts | 180° |
| 2026-05-05 17:40 | 48.86697 | 8.52013 | 20823 ft | 416 kts | 180° |
| 2026-05-05 17:41 | 48.83823 | 8.51993 | 20823 ft | 416 kts | 180° |
| 2026-05-05 17:41 | 48.80948 | 8.51973 | 20820 ft | 411 kts | 180° |
| 2026-05-05 17:41 | 48.78186 | 8.51953 | 20816 ft | 392 kts | 180° |
| 2026-05-05 17:41 | 48.75493 | 8.51934 | 20820 ft | 387 kts | 180° |
| 2026-05-05 17:42 | 48.72810 | 8.51915 | 20822 ft | 387 kts | 180° |
| 2026-05-05 17:42 | 48.70131 | 8.51896 | 20822 ft | 387 kts | 180° |
| 2026-05-05 17:42 | 48.67430 | 8.51877 | 20822 ft | 387 kts | 180° |
| 2026-05-05 17:42 | 48.64775 | 8.51859 | 20819 ft | 381 kts | 180° |
| 2026-05-05 17:43 | 48.62168 | 8.51841 | 20815 ft | 364 kts | 180° |
| 2026-05-05 17:43 | 48.59664 | 8.51823 | 20820 ft | 361 kts | 180° |
| 2026-05-05 17:43 | 48.57190 | 8.51805 | 20822 ft | 360 kts | 180° |
| 2026-05-05 17:43 | 48.54692 | 8.51791 | 20822 ft | 360 kts | 179° |
| 2026-05-05 17:44 | 48.52192 | 8.52134 | 20823 ft | 360 kts | 172° |
| 2026-05-05 17:44 | 48.49723 | 8.52739 | 20822 ft | 360 kts | 171° |
| 2026-05-05 17:44 | 48.47283 | 8.53388 | 20682 ft | 355 kts | 171° |
| 2026-05-05 17:44 | 48.44881 | 8.54036 | 20150 ft | 354 kts | 171° |
| 2026-05-05 17:45 | 48.42475 | 8.54687 | 19581 ft | 352 kts | 171° |
| 2026-05-05 17:45 | 48.40085 | 8.55335 | 19022 ft | 350 kts | 171° |
| 2026-05-05 17:45 | 48.37710 | 8.55960 | 18609 ft | 345 kts | 173° |
| 2026-05-05 17:45 | 48.35329 | 8.56049 | 18061 ft | 339 kts | 184° |
| 2026-05-05 17:46 | 48.32989 | 8.55744 | 17842 ft | 340 kts | 186° |
| 2026-05-05 17:46 | 48.30644 | 8.55407 | 17827 ft | 341 kts | 185° |
| 2026-05-05 17:46 | 48.28285 | 8.55095 | 17815 ft | 341 kts | 185° |
| 2026-05-05 17:46 | 48.25948 | 8.54811 | 17831 ft | 341 kts | 185° |
| 2026-05-05 17:47 | 48.23579 | 8.54570 | 17815 ft | 341 kts | 181° |
| 2026-05-05 17:47 | 48.21194 | 8.54615 | 17827 ft | 349 kts | 178° |
| 2026-05-05 17:47 | 48.18758 | 8.54773 | 17824 ft | 353 kts | 178° |
| 2026-05-05 17:47 | 48.16304 | 8.54952 | 17801 ft | 353 kts | 178° |
| 2026-05-05 17:48 | 48.13875 | 8.55134 | 17700 ft | 346 kts | 178° |
| 2026-05-05 17:48 | 48.11500 | 8.55314 | 17092 ft | 347 kts | 178° |
| 2026-05-05 17:48 | 48.09105 | 8.55503 | 16281 ft | 347 kts | 178° |
| 2026-05-05 17:48 | 48.06714 | 8.55702 | 15744 ft | 345 kts | 178° |
| 2026-05-05 17:49 | 48.04337 | 8.55910 | 15249 ft | 342 kts | 178° |
| 2026-05-05 17:49 | 48.01977 | 8.56123 | 14685 ft | 341 kts | 178° |
| 2026-05-05 17:49 | 47.99636 | 8.56344 | 14142 ft | 339 kts | 178° |
| 2026-05-05 17:49 | 47.97280 | 8.56717 | 13571 ft | 340 kts | 168° |
| 2026-05-05 17:50 | 47.95175 | 8.58210 | 13014 ft | 343 kts | 149° |
| 2026-05-05 17:50 | 47.93216 | 8.60208 | 12530 ft | 340 kts | 148° |
| 2026-05-05 17:50 | 47.91288 | 8.62185 | 12037 ft | 337 kts | 148° |
| 2026-05-05 17:50 | 47.89352 | 8.64128 | 11850 ft | 338 kts | 149° |
| 2026-05-05 17:51 | 47.87402 | 8.66053 | 11850 ft | 339 kts | 149° |
| 2026-05-05 17:51 | 47.85419 | 8.68028 | 11854 ft | 339 kts | 148° |
| 2026-05-05 17:51 | 47.83564 | 8.70149 | 11839 ft | 337 kts | 142° |
| 2026-05-05 17:51 | 47.81821 | 8.72422 | 11455 ft | 334 kts | 141° |
| 2026-05-05 17:52 | 47.79961 | 8.74441 | 10801 ft | 334 kts | 155° |
| 2026-05-05 17:52 | 47.77827 | 8.75827 | 10046 ft | 338 kts | 161° |
| 2026-05-05 17:52 | 47.75641 | 8.77046 | 9441 ft | 337 kts | 162° |
| 2026-05-05 17:52 | 47.73477 | 8.78222 | 8909 ft | 335 kts | 163° |
| 2026-05-05 17:53 | 47.71296 | 8.79403 | 8367 ft | 333 kts | 162° |
| 2026-05-05 17:53 | 47.69082 | 8.80284 | 7802 ft | 328 kts | 178° |
| 2026-05-05 17:53 | 47.66864 | 8.79925 | 7269 ft | 320 kts | 201° |
| 2026-05-05 17:53 | 47.64985 | 8.78298 | 6880 ft | 312 kts | 224° |
| 2026-05-05 17:54 | 47.63657 | 8.75779 | 6318 ft | 311 kts | 239° |
| 2026-05-05 17:54 | 47.62603 | 8.72981 | 6024 ft | 312 kts | 243° |
| 2026-05-05 17:54 | 47.61784 | 8.70086 | 5994 ft | 297 kts | 251° |
| 2026-05-05 17:54 | 47.61163 | 8.67264 | 5991 ft | 278 kts | 252° |
| 2026-05-05 17:55 | 47.60612 | 8.64616 | 5989 ft | 261 kts | 253° |
| 2026-05-05 17:55 | 47.60305 | 8.61994 | 5980 ft | 260 kts | 273° |
| 2026-05-05 17:55 | 47.60812 | 8.59443 | 5994 ft | 264 kts | 296° |
| 2026-05-05 17:55 | 47.61766 | 8.57128 | 5998 ft | 265 kts | 302° |
| 2026-05-05 17:56 | 47.62821 | 8.54851 | 5996 ft | 266 kts | 303° |
| 2026-05-05 17:56 | 47.63871 | 8.52631 | 5996 ft | 266 kts | 303° |
| 2026-05-05 17:56 | 47.64944 | 8.50378 | 5994 ft | 263 kts | 303° |
| 2026-05-05 17:56 | 47.65968 | 8.48241 | 5988 ft | 247 kts | 303° |
| 2026-05-05 17:57 | 47.66886 | 8.46150 | 5896 ft | 237 kts | 290° |
| 2026-05-05 17:57 | 47.67129 | 8.43803 | 5622 ft | 228 kts | 259° |
| 2026-05-05 17:57 | 47.66650 | 8.41632 | 5463 ft | 218 kts | 246° |
| 2026-05-05 17:57 | 47.66012 | 8.39673 | 5305 ft | 210 kts | 243° |
| 2026-05-05 17:58 | 47.65113 | 8.38017 | 5118 ft | 204 kts | 213° |
| 2026-05-05 17:58 | 47.63785 | 8.37456 | 4942 ft | 200 kts | 182° |
| 2026-05-05 17:58 | 47.62410 | 8.37636 | 4716 ft | 199 kts | 174° |
| 2026-05-05 17:58 | 47.61048 | 8.37971 | 4429 ft | 199 kts | 173° |
| 2026-05-05 17:59 | 47.59713 | 8.38454 | 4139 ft | 201 kts | 158° |
| 2026-05-05 17:59 | 47.58511 | 8.39506 | 4003 ft | 202 kts | 145° |
| 2026-05-05 17:59 | 47.57444 | 8.40848 | 3863 ft | 205 kts | 139° |
| 2026-05-05 17:59 | 47.56417 | 8.42308 | 3598 ft | 204 kts | 138° |
| 2026-05-05 18:00 | 47.55400 | 8.43748 | 3337 ft | 203 kts | 138° |
| 2026-05-05 18:00 | 47.54392 | 8.45138 | 3157 ft | 191 kts | 139° |
| 2026-05-05 18:00 | 47.53442 | 8.46427 | 2860 ft | 182 kts | 137° |
| 2026-05-05 18:00 | 47.52540 | 8.47654 | 2604 ft | 172 kts | 137° |
| 2026-05-05 18:01 | 47.51691 | 8.48815 | 2382 ft | 159 kts | 137° |
| 2026-05-05 18:01 | 47.50919 | 8.49877 | 2160 ft | 146 kts | 137° |
| 2026-05-05 18:01 | 47.50205 | 8.50868 | 1950 ft | 139 kts | 136° |
| 2026-05-05 18:01 | 47.49503 | 8.51834 | 1770 ft | 138 kts | 137° |
| 2026-05-05 18:02 | 47.48793 | 8.52801 | 1617 ft | 138 kts | 137° |
| 2026-05-05 18:02 | 47.48093 | 8.53760 | 1460 ft | 138 kts | 137° |
| 2026-05-05 18:02 | 47.47431 | 8.54663 | 1425 ft | 110 kts | 137° |
| 2026-05-05 18:02 | 47.46977 | 8.55283 | 1425 ft | 74 kts | 137° |
| 2026-05-05 18:03 | 47.46736 | 8.55589 | 1425 ft | 32 kts | 150° |
| 2026-05-05 18:03 | 47.46563 | 8.55685 | 1425 ft | 24 kts | 168° |
| 2026-05-05 18:03 | 47.46452 | 8.55725 | 1425 ft | 9 kts | 167° |
| 2026-05-05 18:03 | 47.46387 | 8.55752 | 1425 ft | 10 kts | 154° |
| 2026-05-05 18:04 | 47.46331 | 8.55819 | 1425 ft | 10 kts | 139° |
| 2026-05-05 18:04 | 47.46274 | 8.55897 | 1425 ft | 11 kts | 136° |
| 2026-05-05 18:04 | 47.46214 | 8.55981 | 1425 ft | 12 kts | 137° |
| 2026-05-05 18:04 | 47.46195 | 8.56003 | 1425 ft | 2 kts | 175° |
| 2026-05-05 18:05 | 47.46168 | 8.56000 | 1425 ft | 6 kts | 186° |
| 2026-05-05 18:05 | 47.46112 | 8.55991 | 1425 ft | 10 kts | 187° |
| 2026-05-05 18:05 | 47.46034 | 8.55978 | 1425 ft | 11 kts | 186° |
| 2026-05-05 18:05 | 47.45950 | 8.55959 | 1425 ft | 12 kts | 200° |
| 2026-05-05 18:06 | 47.45869 | 8.55916 | 1425 ft | 12 kts | 200° |
| 2026-05-05 18:06 | 47.45814 | 8.55887 | 1425 ft | 12 kts | 197° |
| 2026-05-05 18:06 | 47.45707 | 8.55863 | 1425 ft | 3 kts | 186° |
| 2026-05-05 18:06 | 47.45679 | 8.55859 | 1425 ft | 4 kts | 186° |
| 2026-05-05 18:07 | 47.45648 | 8.55840 | 1425 ft | 5 kts | 236° |
| 2026-05-05 18:07 | 47.45645 | 8.55769 | 1425 ft | 8 kts | 275° |
| 2026-05-05 18:07 | 47.45651 | 8.55678 | 1425 ft | 9 kts | 276° |
| 2026-05-05 18:07 | 47.45659 | 8.55566 | 1425 ft | 11 kts | 277° |
| 2026-05-05 18:08 | 47.45669 | 8.55440 | 1425 ft | 13 kts | 276° |
| 2026-05-05 18:08 | 47.45644 | 8.55339 | 1425 ft | 11 kts | 193° |
| 2026-05-05 18:08 | 47.45562 | 8.55382 | 1425 ft | 13 kts | 155° |
| 2026-05-05 18:08 | 47.45476 | 8.55442 | 1425 ft | 14 kts | 155° |
| 2026-05-05 18:09 | 47.45378 | 8.55509 | 1425 ft | 16 kts | 155° |
| 2026-05-05 18:09 | 47.45280 | 8.55582 | 1425 ft | 11 kts | 124° |
| 2026-05-05 18:09 | 47.45269 | 8.55680 | 1425 ft | 9 kts | 102° |
| 2026-05-05 18:09 | 47.45261 | 8.55784 | 1425 ft | 10 kts | 97° |
| 2026-05-05 18:10 | 47.45253 | 8.55897 | 1425 ft | 11 kts | 91° |
| 2026-05-05 18:10 | 47.45285 | 8.55934 | 1425 ft | 5 kts | 3° |
| 2026-05-05 18:10 | 47.45324 | 8.55940 | 1425 ft | 2 kts | 6° |
| 2026-05-05 18:10 | 47.45334 | 8.55941 | 1425 ft | 0 kts | 6° |
| 2026-05-05 18:11 | 47.45336 | 8.55942 | 1425 ft | 0 kts | 6° |